Time;durP1;ratioP1;P1;durP2;ratioP2;P2;SDS_P1;SDS_P2;PMS_P1;PMS_P2;Temp;Humidity;BMP_temperature;BMP_pressure;BME280_temperature;BME280_humidity;BME280_pressure;Samples;Min_cycle;Max_cycle;Signal;HPM_P1;HPM_P2
2022/09/05 00:00:37;;;;;;;;;;;19.50;99.30;;;;;;8417450;28;19924;-73
2022/09/05 00:04:44;;;;;;;;;;;19.50;99.40;;;;;;8405978;28;20406;-73
2022/09/05 00:08:51;;;;;;;;;;;19.40;99.50;;;;;;8390999;28;19924;-73
2022/09/05 00:12:55;;;;;;;;;;;19.40;99.60;;;;;;8404561;28;19928;-72
2022/09/05 00:17:14;;;;;;;;;;;19.40;99.60;;;;;;8413108;28;20380;-73
2022/09/05 00:21:19;;;;;;;;;;;19.50;99.70;;;;;;8409463;28;19960;-73
2022/09/05 00:25:38;;;;;;;;;;;19.50;99.70;;;;;;8411325;28;19936;-73
2022/09/05 00:29:59;;;;;;;;;;;19.50;99.80;;;;;;8386830;28;19932;-73
2022/09/05 00:34:39;;;;;;;;;;;19.60;99.90;;;;;;8415627;28;20002;-73
2022/09/05 00:38:55;;;;;;;;;;;19.60;99.90;;;;;;8405611;28;19931;-73
2022/09/05 00:43:00;;;;;;;;;;;19.60;99.90;;;;;;8420017;28;19947;-74
2022/09/05 00:47:22;;;;;;;;;;;19.50;99.90;;;;;;8419895;28;19939;-73
2022/09/05 00:51:33;;;;;;;;;;;19.40;99.90;;;;;;8414103;28;19924;-74
2022/09/05 00:55:39;;;;;;;;;;;19.40;99.90;;;;;;8415535;28;19924;-74
2022/09/05 00:59:41;;;;;;;;;;;19.30;99.90;;;;;;8406265;28;19932;-73
2022/09/05 01:03:46;;;;;;;;;;;19.30;99.90;;;;;;8414526;28;19924;-73
2022/09/05 01:07:57;;;;;;;;;;;19.20;99.90;;;;;;8410738;28;19931;-74
2022/09/05 01:12:05;;;;;;;;;;;19.20;99.90;;;;;;8419624;28;19931;-74
2022/09/05 01:16:20;;;;;;;;;;;19.10;99.90;;;;;;8415924;28;19939;-73
2022/09/05 01:20:28;;;;;;;;;;;19.10;99.90;;;;;;8404830;28;19932;-73
2022/09/05 01:24:37;;;;;;;;;;;19.00;99.90;;;;;;8422203;28;20419;-73
2022/09/05 01:28:44;;;;;;;;;;;19.00;99.90;;;;;;8417925;28;19932;-73
2022/09/05 01:33:13;;;;;;;;;;;19.10;99.90;;;;;;8421123;28;20046;-73
2022/09/05 01:37:18;;;;;;;;;;;19.10;99.90;;;;;;8414247;28;19936;-73
2022/09/05 01:57:18;;;;;;;;;;;19.00;99.90;;;;;;8415926;28;19919;-73
2022/09/05 02:06:40;;;;;;;;;;;18.90;99.90;;;;;;8424474;28;20447;-73
2022/09/05 02:11:07;;;;;;;;;;;18.80;99.90;;;;;;8415940;28;19998;-73
2022/09/05 02:15:15;;;;;;;;;;;18.90;99.90;;;;;;8402872;28;19932;-73
2022/09/05 02:19:24;;;;;;;;;;;18.90;99.90;;;;;;8411001;28;19923;-73
2022/09/05 02:23:33;;;;;;;;;;;18.80;99.90;;;;;;8387665;28;19924;-74
2022/09/05 02:27:46;;;;;;;;;;;18.80;99.90;;;;;;8413029;28;19973;-73
2022/09/05 02:32:12;;;;;;;;;;;18.90;99.90;;;;;;8415716;28;19924;-73
2022/09/05 02:36:21;;;;;;;;;;;18.90;99.90;;;;;;8413849;28;20382;-73
2022/09/05 02:40:26;;;;;;;;;;;18.90;99.90;;;;;;8411374;28;19928;-73
2022/09/05 02:45:09;;;;;;;;;;;18.90;99.90;;;;;;8416486;28;19968;-74
2022/09/05 02:49:57;;;;;;;;;;;18.90;99.90;;;;;;8421627;28;19931;-73
2022/09/05 02:54:22;;;;;;;;;;;18.90;99.90;;;;;;8352785;28;19955;-73
2022/09/05 02:58:53;;;;;;;;;;;19.00;99.90;;;;;;8394657;28;19983;-73
2022/09/05 03:03:18;;;;;;;;;;;18.90;99.90;;;;;;8413008;28;19924;-73
2022/09/05 03:12:27;;;;;;;;;;;18.90;99.90;;;;;;8411373;28;19965;-73
2022/09/05 03:16:49;;;;;;;;;;;18.90;99.90;;;;;;8394994;28;19924;-73
2022/09/05 03:21:10;;;;;;;;;;;18.90;99.90;;;;;;8411986;28;19935;-73
2022/09/05 03:25:21;;;;;;;;;;;19.00;99.90;;;;;;8415367;28;19931;-73
2022/09/05 03:29:26;;;;;;;;;;;19.00;99.90;;;;;;8404878;28;19934;-73
2022/09/05 03:33:39;;;;;;;;;;;18.90;99.90;;;;;;8401672;28;19924;-73
2022/09/05 03:37:48;;;;;;;;;;;18.90;99.90;;;;;;8416625;28;20269;-73
2022/09/05 03:41:58;;;;;;;;;;;18.90;99.90;;;;;;8391930;28;20291;-74
2022/09/05 03:51:00;;;;;;;;;;;19.00;99.90;;;;;;8409223;28;20279;-73
2022/09/05 03:55:33;;;;;;;;;;;19.00;99.90;;;;;;8409027;28;20471;-73
2022/09/05 03:59:58;;;;;;;;;;;19.00;99.90;;;;;;8393165;28;20415;-73
2022/09/05 04:04:02;;;;;;;;;;;19.00;99.90;;;;;;8412686;28;19924;-73
2022/09/05 04:13:45;;;;;;;;;;;19.00;99.90;;;;;;8410192;28;20282;-73
2022/09/05 04:17:51;;;;;;;;;;;19.00;99.90;;;;;;8415967;28;19932;-73
2022/09/05 04:22:06;;;;;;;;;;;19.00;99.90;;;;;;8413784;28;19931;-74
2022/09/05 04:26:17;;;;;;;;;;;19.00;99.90;;;;;;8409560;28;21650;-73
2022/09/05 04:30:29;;;;;;;;;;;19.00;99.90;;;;;;8411389;28;19932;-73
2022/09/05 04:34:46;;;;;;;;;;;19.00;99.90;;;;;;8417847;28;19975;-73
2022/09/05 04:39:04;;;;;;;;;;;19.00;99.90;;;;;;8399304;28;19932;-74
2022/09/05 04:43:12;;;;;;;;;;;19.00;99.90;;;;;;8418795;28;19935;-73
2022/09/05 04:47:35;;;;;;;;;;;19.00;99.90;;;;;;8410616;28;19928;-73
2022/09/05 04:51:43;;;;;;;;;;;19.00;99.90;;;;;;8418918;28;20023;-74
2022/09/05 04:55:47;;;;;;;;;;;19.00;99.90;;;;;;8416059;28;19958;-74
2022/09/05 04:59:51;;;;;;;;;;;19.00;99.90;;;;;;8403510;28;19928;-73
2022/09/05 05:04:16;;;;;;;;;;;19.00;99.90;;;;;;8410610;28;20011;-74
2022/09/05 05:08:37;;;;;;;;;;;18.90;99.90;;;;;;8421758;28;19928;-73
2022/09/05 05:12:40;;;;;;;;;;;18.90;99.90;;;;;;8413243;28;19940;-74
2022/09/05 05:17:07;;;;;;;;;;;18.90;99.90;;;;;;8386259;28;20030;-74
2022/09/05 05:21:29;;;;;;;;;;;18.90;99.90;;;;;;8412387;28;20372;-73
2022/09/05 05:25:32;;;;;;;;;;;18.90;99.90;;;;;;8407244;28;19931;-74
2022/09/05 05:29:43;;;;;;;;;;;18.90;99.90;;;;;;8419248;28;19924;-74
2022/09/05 05:33:47;;;;;;;;;;;19.00;99.90;;;;;;8420616;28;19924;-74
2022/09/05 05:38:03;;;;;;;;;;;19.00;99.90;;;;;;8408415;28;19931;-74
2022/09/05 05:42:12;;;;;;;;;;;19.00;99.90;;;;;;8419350;28;19970;-74
2022/09/05 05:46:25;;;;;;;;;;;19.00;99.90;;;;;;8416334;28;19932;-74
2022/09/05 05:50:39;;;;;;;;;;;19.10;99.90;;;;;;8405672;28;19924;-74
2022/09/05 05:54:54;;;;;;;;;;;19.10;99.90;;;;;;8415610;28;20356;-73
2022/09/05 05:59:31;;;;;;;;;;;19.10;99.90;;;;;;8408360;28;19932;-73
2022/09/05 06:04:11;;;;;;;;;;;19.20;99.90;;;;;;8417292;28;22638;-73
2022/09/05 06:08:13;;;;;;;;;;;19.30;99.90;;;;;;8298917;28;19938;-73
2022/09/05 06:12:44;;;;;;;;;;;19.40;99.90;;;;;;8357803;28;20010;-73
2022/09/05 06:17:24;;;;;;;;;;;19.40;99.90;;;;;;8400338;28;19930;-74
2022/09/05 06:21:50;;;;;;;;;;;19.50;99.90;;;;;;8409630;28;19931;-74
2022/09/05 06:26:24;;;;;;;;;;;19.60;99.90;;;;;;8420755;28;19931;-73
2022/09/05 06:30:30;;;;;;;;;;;19.70;99.90;;;;;;8411145;28;20554;-74
2022/09/05 06:34:51;;;;;;;;;;;19.70;99.90;;;;;;8415552;28;20049;-73
2022/09/05 06:39:00;;;;;;;;;;;19.80;99.90;;;;;;8410117;28;19932;-73
2022/09/05 06:43:20;;;;;;;;;;;19.90;99.90;;;;;;8421305;28;19992;-73
2022/09/05 06:47:23;;;;;;;;;;;20.00;99.90;;;;;;8415101;28;19951;-74
2022/09/05 06:51:36;;;;;;;;;;;20.10;99.90;;;;;;8406972;28;20387;-73
2022/09/05 06:55:50;;;;;;;;;;;20.10;99.90;;;;;;8426080;28;19933;-74
2022/09/05 07:00:01;;;;;;;;;;;20.20;99.90;;;;;;8418196;28;19928;-73
2022/09/05 07:04:03;;;;;;;;;;;20.40;99.90;;;;;;8415308;28;19932;-73
2022/09/05 07:08:46;;;;;;;;;;;20.50;99.90;;;;;;8415157;28;19978;-74
2022/09/05 07:13:07;;;;;;;;;;;20.50;99.90;;;;;;8410882;28;20213;-73
2022/09/05 07:17:12;;;;;;;;;;;20.60;99.90;;;;;;8414754;28;19935;-74
2022/09/05 07:21:22;;;;;;;;;;;20.60;99.90;;;;;;8392466;28;20630;-73
2022/09/05 07:25:28;;;;;;;;;;;20.70;99.90;;;;;;8421423;28;19969;-74
2022/09/05 07:29:31;;;;;;;;;;;20.80;99.90;;;;;;8417259;28;20374;-73
2022/09/05 07:33:34;;;;;;;;;;;20.90;99.90;;;;;;8415922;28;19936;-73
2022/09/05 07:37:40;;;;;;;;;;;21.00;99.90;;;;;;8413495;28;19947;-73
2022/09/05 07:41:44;;;;;;;;;;;21.10;99.90;;;;;;8416478;28;19925;-73
2022/09/05 07:45:48;;;;;;;;;;;21.20;99.90;;;;;;8422406;28;20287;-73
2022/09/05 07:49:58;;;;;;;;;;;21.30;99.90;;;;;;8413172;28;19968;-73
2022/09/05 07:54:27;;;;;;;;;;;21.40;99.90;;;;;;8415931;28;19959;-73
2022/09/05 07:58:51;;;;;;;;;;;21.50;99.90;;;;;;8417391;28;19967;-74
2022/09/05 08:02:52;;;;;;;;;;;21.70;99.90;;;;;;8397558;28;19939;-73
2022/09/05 08:06:57;;;;;;;;;;;21.80;99.90;;;;;;8411136;28;19939;-74
2022/09/05 08:11:20;;;;;;;;;;;21.90;99.90;;;;;;8406776;28;20020;-74
2022/09/05 08:15:27;;;;;;;;;;;22.10;99.90;;;;;;8413797;28;19931;-74
2022/09/05 08:19:57;;;;;;;;;;;22.20;99.90;;;;;;8408596;28;19940;-74
2022/09/05 08:24:11;;;;;;;;;;;22.30;99.90;;;;;;8414513;28;19932;-73
2022/09/05 08:28:21;;;;;;;;;;;22.40;99.90;;;;;;8415056;28;20270;-73
2022/09/05 08:32:34;;;;;;;;;;;22.50;99.90;;;;;;8414155;28;19928;-74
2022/09/05 08:36:40;;;;;;;;;;;22.60;99.90;;;;;;8415238;28;19924;-73
2022/09/05 08:40:53;;;;;;;;;;;22.70;99.90;;;;;;8411819;28;19925;-73
2022/09/05 08:45:14;;;;;;;;;;;22.80;99.90;;;;;;8414450;28;19928;-74
2022/09/05 08:49:47;;;;;;;;;;;22.90;99.90;;;;;;8402842;28;20371;-74
2022/09/05 08:54:01;;;;;;;;;;;23.10;99.90;;;;;;8412037;28;19932;-73
2022/09/05 08:58:23;;;;;;;;;;;23.30;99.90;;;;;;8415891;28;20351;-73
2022/09/05 09:02:35;;;;;;;;;;;23.40;99.90;;;;;;8408464;28;19928;-74
2022/09/05 09:07:06;;;;;;;;;;;23.50;99.90;;;;;;8422787;28;19927;-73
2022/09/05 09:11:34;;;;;;;;;;;23.70;99.90;;;;;;8404084;28;19932;-73
2022/09/05 09:15:56;;;;;;;;;;;23.80;99.90;;;;;;8397385;28;20390;-73
2022/09/05 09:20:08;;;;;;;;;;;24.00;99.90;;;;;;8398503;28;19977;-73
2022/09/05 09:24:30;;;;;;;;;;;24.10;99.90;;;;;;8421985;28;19924;-74
2022/09/05 09:28:44;;;;;;;;;;;24.20;99.90;;;;;;8408781;28;19928;-75
2022/09/05 09:32:51;;;;;;;;;;;24.30;99.90;;;;;;8415222;28;19938;-73
2022/09/05 09:37:10;;;;;;;;;;;24.30;99.90;;;;;;8421715;28;20359;-74
2022/09/05 09:41:21;;;;;;;;;;;24.40;99.90;;;;;;8420693;28;19971;-73
2022/09/05 09:45:41;;;;;;;;;;;24.50;99.90;;;;;;8411970;28;19933;-74
2022/09/05 09:50:06;;;;;;;;;;;24.70;99.90;;;;;;8422462;28;19935;-73
2022/09/05 09:54:26;;;;;;;;;;;24.80;99.90;;;;;;8415417;28;19947;-74
2022/09/05 09:58:40;;;;;;;;;;;24.80;99.90;;;;;;8418466;28;19969;-74
2022/09/05 10:03:01;;;;;;;;;;;25.00;99.90;;;;;;8415104;28;20383;-75
2022/09/05 10:07:41;;;;;;;;;;;25.10;99.90;;;;;;8410195;28;19975;-76
2022/09/05 10:12:06;;;;;;;;;;;25.30;99.90;;;;;;8430144;28;20027;-75
2022/09/05 10:16:26;;;;;;;;;;;25.50;99.90;;;;;;8409374;28;20438;-74
2022/09/05 10:20:36;;;;;;;;;;;25.70;99.90;;;;;;8417646;28;19928;-74
2022/09/05 10:24:38;;;;;;;;;;;25.80;99.90;;;;;;8419323;28;20005;-75
2022/09/05 10:28:41;;;;;;;;;;;25.90;99.90;;;;;;8416461;28;19931;-74
2022/09/05 10:32:49;;;;;;;;;;;26.00;99.90;;;;;;8414656;28;19931;-74
2022/09/05 10:37:12;;;;;;;;;;;26.10;99.90;;;;;;8417860;28;19990;-74
2022/09/05 10:41:16;;;;;;;;;;;26.20;99.90;;;;;;8410450;28;19932;-74
2022/09/05 10:45:27;;;;;;;;;;;26.30;99.90;;;;;;8395152;28;19958;-74
2022/09/05 10:49:40;;;;;;;;;;;26.40;99.90;;;;;;8411464;28;19951;-73
2022/09/05 10:53:46;;;;;;;;;;;26.40;99.90;;;;;;8409189;28;19931;-74
2022/09/05 10:58:06;;;;;;;;;;;26.50;99.90;;;;;;8407782;28;19928;-74
2022/09/05 11:02:18;;;;;;;4.50;2.13;;;26.60;99.90;;;;;;8416760;28;20078;-73
2022/09/05 11:06:50;;;;;;;5.82;1.88;;;26.70;99.90;;;;;;8415891;28;20058;-73
2022/09/05 11:11:21;;;;;;;4.65;1.83;;;26.90;99.90;;;;;;8417368;28;20051;-74
2022/09/05 11:15:53;;;;;;;;;;;27.00;99.90;;;;;;8413857;28;20494;-74
2022/09/05 11:20:23;;;;;;;;;;;27.00;99.90;;;;;;8413269;28;20338;-74
2022/09/05 11:24:40;;;;;;;;;;;27.10;99.90;;;;;;8421944;28;19920;-74
2022/09/05 11:28:41;;;;;;;;;;;27.20;99.90;;;;;;8387815;28;19927;-74
2022/09/05 11:33:03;;;;;;;;;;;27.30;99.90;;;;;;8412203;28;19935;-73
2022/09/05 11:37:50;;;;;;;;;;;27.40;99.90;;;;;;8405946;28;20022;-74
2022/09/05 11:42:18;;;;;;;;;;;27.50;99.90;;;;;;8404426;28;19964;-74
2022/09/05 11:46:29;;;;;;;;;;;27.60;99.90;;;;;;8418432;28;19927;-74
2022/09/05 11:50:49;;;;;;;;;;;27.70;99.90;;;;;;8410386;28;20010;-74
2022/09/05 11:55:10;;;;;;;;;;;27.80;99.90;;;;;;8411649;28;19920;-74
2022/09/05 11:59:40;;;;;;;;;;;28.00;99.70;;;;;;8413540;28;19920;-73
2022/09/05 12:03:57;;;;;;;;;;;28.00;99.40;;;;;;8406613;28;20385;-73
2022/09/05 12:08:05;;;;;;;;;;;28.00;99.20;;;;;;8395260;28;20371;-74
2022/09/05 12:12:25;;;;;;;;;;;27.90;99.10;;;;;;8418138;28;19927;-73
2022/09/05 12:16:45;;;;;;;;;;;27.90;98.90;;;;;;8396655;28;19927;-73
2022/09/05 12:20:52;;;;;;;;;;;27.80;98.60;;;;;;8412619;28;19931;-73
2022/09/05 12:25:02;;;;;;;;;;;27.70;98.50;;;;;;8402170;28;19928;-73
2022/09/05 12:29:26;;;;;;;;;;;27.70;98.40;;;;;;8414711;28;20018;-74
2022/09/05 12:33:45;;;;;;;;;;;27.70;98.40;;;;;;8421450;28;19920;-73
2022/09/05 12:38:17;;;;;;;;;;;27.80;97.60;;;;;;8406764;28;19919;-75
2022/09/05 12:42:45;;;;;;;;;;;27.70;97.40;;;;;;8406741;28;20377;-74
2022/09/05 12:47:09;;;;;;;;;;;27.70;97.50;;;;;;8397922;28;20449;-73
2022/09/05 12:51:20;;;;;;;;;;;27.60;97.60;;;;;;8388805;28;19977;-73
2022/09/05 12:55:51;;;;;;;;;;;27.60;97.60;;;;;;8395711;28;20038;-73
2022/09/05 13:00:22;;;;;;;;;;;27.60;97.40;;;;;;8393564;28;19924;-74
2022/09/05 13:04:46;;;;;;;;;;;27.60;97.30;;;;;;8389871;28;19964;-73
2022/09/05 13:09:23;;;;;;;;;;;27.70;97.10;;;;;;8391165;28;19927;-74
2022/09/05 13:13:33;;;;;;;;;;;27.80;97.00;;;;;;8386936;28;19928;-74
2022/09/05 13:18:12;;;;;;;;;;;27.90;96.30;;;;;;8387654;28;20015;-73
2022/09/05 13:22:15;;;;;;;;;;;27.90;96.70;;;;;;8393702;28;19928;-73
2022/09/05 13:26:22;;;;;;;;;;;28.00;96.80;;;;;;8396330;28;19974;-73
2022/09/05 13:30:24;;;;;;;;;;;28.00;96.70;;;;;;8371181;28;19921;-73
2022/09/05 13:34:47;;;;;;;;;;;28.00;96.70;;;;;;8394799;28;20533;-73
2022/09/05 13:39:16;;;;;;;;;;;28.00;96.60;;;;;;8396147;28;20388;-74
2022/09/05 13:43:21;;;;;;;;;;;28.00;96.60;;;;;;8393359;28;19920;-73
2022/09/05 13:47:49;;;;;;;;;;;28.20;96.50;;;;;;8385924;28;19920;-73
2022/09/05 13:51:54;;;;;;;;;;;28.20;96.30;;;;;;8398352;28;19963;-73
2022/09/05 13:56:01;;;;;;;;;;;28.20;96.30;;;;;;8391656;28;19920;-73
2022/09/05 14:00:16;;;;;;;;;;;28.20;96.20;;;;;;8389824;28;20006;-73
2022/09/05 14:04:31;;;;;;;;;;;28.10;96.20;;;;;;8388963;28;19920;-73
2022/09/05 14:09:03;;;;;;;;;;;28.10;95.90;;;;;;8390392;28;19960;-74
2022/09/05 14:13:29;;;;;;;;;;;28.10;95.80;;;;;;8390965;28;20017;-74
2022/09/05 14:17:46;;;;;;;;;;;28.10;95.90;;;;;;8387528;28;19924;-73
2022/09/05 14:21:52;;;;;;;;;;;28.10;96.10;;;;;;8389432;28;19926;-73
2022/09/05 14:25:58;;;;;;;;;;;28.20;96.20;;;;;;8388218;28;20364;-73
2022/09/05 14:30:01;;;;;;;;;;;28.30;96.10;;;;;;8387284;28;19924;-73
2022/09/05 14:34:45;;;;;;;;;;;28.40;95.90;;;;;;8389140;28;20363;-73
2022/09/05 14:39:25;;;;;;;;;;;28.30;95.90;;;;;;8372007;28;20018;-73
2022/09/05 14:43:31;;;;;;;;;;;28.30;95.80;;;;;;8394873;28;19942;-73
2022/09/05 14:47:34;;;;;;;;;;;28.40;95.80;;;;;;8390810;28;19925;-73
2022/09/05 14:51:36;;;;;;;;;;;28.30;95.90;;;;;;8374981;28;19920;-73
2022/09/05 14:55:58;;;;;;;;;;;28.40;95.60;;;;;;8388354;28;19932;-73
2022/09/05 15:00:21;;;;;;;;;;;28.30;95.50;;;;;;8387487;28;20302;-74
2022/09/05 15:04:51;;;;;;;;;;;28.30;95.60;;;;;;8375521;28;19959;-73
2022/09/05 15:09:03;;;;;;;;;;;28.30;95.60;;;;;;8391329;28;19924;-73
2022/09/05 15:13:25;;;;;;;;;;;28.40;95.50;;;;;;8388846;28;19955;-73
2022/09/05 15:17:27;;;;;;;;;;;28.50;95.40;;;;;;8373009;28;19928;-73
2022/09/05 15:21:32;;;;;;;;;;;28.60;95.50;;;;;;8389491;28;19932;-74
2022/09/05 15:25:55;;;;;;;;;;;28.70;95.40;;;;;;8388244;28;20041;-72
2022/09/05 15:30:01;;;;;;;;;;;28.90;95.40;;;;;;8360813;28;20389;-73
2022/09/05 15:34:24;;;;;;;;;;;29.20;95.40;;;;;;8382326;28;19920;-73
2022/09/05 15:38:25;;;;;;;;;;;29.60;95.30;;;;;;8379556;28;19931;-74
2022/09/05 15:42:30;;;;;;;;;;;30.10;95.20;;;;;;8376997;28;19964;-74
2022/09/05 15:46:50;;;;;;;;;;;30.50;95.10;;;;;;8386630;28;19935;-73
2022/09/05 15:50:54;;;;;;;;;;;30.50;94.70;;;;;;8375738;28;20031;-73
2022/09/05 15:55:12;;;;;;;;;;;30.40;94.30;;;;;;8384792;28;19928;-73
2022/09/05 15:59:14;;;;;;;;;;;30.20;93.80;;;;;;8379974;28;21694;-73
2022/09/05 16:03:17;;;;;;;;;;;29.90;93.30;;;;;;8384206;28;19928;-74
2022/09/05 16:07:59;;;;;;;;;;;29.60;93.00;;;;;;8387944;28;20027;-73
2022/09/05 16:12:41;;;;;;;;;;;29.40;92.70;;;;;;8380182;28;20003;-73
2022/09/05 16:16:45;;;;;;;;;;;29.10;92.60;;;;;;8395729;28;19932;-73
2022/09/05 16:21:08;;;;;;;;;;;28.90;92.60;;;;;;8399029;28;19959;-73
2022/09/05 16:25:33;;;;;;;;;;;28.70;92.80;;;;;;8388195;28;19924;-73
2022/09/05 16:29:40;;;;;;;;;;;28.60;93.20;;;;;;8396090;28;20002;-73
2022/09/05 16:33:42;;;;;;;;;;;28.40;93.40;;;;;;8396157;28;19943;-73
2022/09/05 16:37:50;;;;;;;;;;;28.30;93.60;;;;;;8397157;28;19934;-74
2022/09/05 16:41:58;;;;;;;;;;;28.10;93.80;;;;;;8397410;28;19927;-73
2022/09/05 16:46:05;;;;;;;;;;;28.00;94.00;;;;;;8404348;28;19927;-73
2022/09/05 16:50:19;;;;;;;;;;;27.90;94.20;;;;;;8398726;28;19935;-73
2022/09/05 16:54:32;;;;;;;;;;;27.80;94.40;;;;;;8387298;28;19963;-73
2022/09/05 16:58:36;;;;;;;;;;;27.70;94.60;;;;;;8399630;28;20334;-73
2022/09/05 17:02:49;;;;;;;;;;;27.60;94.80;;;;;;8398544;28;20002;-73
2022/09/05 17:06:50;;;;;;;;;;;27.50;95.00;;;;;;8399444;28;19928;-72
2022/09/05 17:10:57;;;;;;;;;;;27.40;95.10;;;;;;8382611;28;19924;-73
2022/09/05 17:15:09;;;;;;;;;;;27.30;95.20;;;;;;8395095;28;20442;-73
2022/09/05 17:19:21;;;;;;;;;;;27.20;95.30;;;;;;8391118;28;20595;-73
2022/09/05 17:23:24;;;;;;;;;;;27.10;95.50;;;;;;8393116;28;20502;-73
2022/09/05 17:27:50;;;;;;;;;;;27.10;95.70;;;;;;8393548;28;19987;-73
2022/09/05 17:32:15;;;;;;;;;;;27.00;95.70;;;;;;8395602;28;19974;-73
2022/09/05 17:36:35;;;;;;;;;;;26.90;95.80;;;;;;8393354;28;19936;-73
2022/09/05 17:40:50;;;;;;;;;;;26.80;95.90;;;;;;8391272;28;19930;-73
2022/09/05 17:45:07;;;;;;;;;;;26.70;95.90;;;;;;8388693;28;20203;-73
2022/09/05 17:49:09;;;;;;;;;;;26.70;95.80;;;;;;8381583;28;19920;-73
2022/09/05 17:53:20;;;;;;;;;;;26.60;95.70;;;;;;8390079;28;19920;-73
2022/09/05 17:57:27;;;;;;;;;;;26.60;95.80;;;;;;8373750;28;19928;-73
2022/09/05 18:01:31;;;;;;;;;;;26.60;95.80;;;;;;8370532;28;19928;-73
2022/09/05 18:05:51;;;;;;;;;;;26.50;95.80;;;;;;8373620;28;19946;-73
2022/09/05 18:09:57;;;;;;;;;;;26.50;95.90;;;;;;8392197;28;20003;-73
2022/09/05 18:14:14;;;;;;;;;;;26.50;95.80;;;;;;8374060;28;20323;-73
2022/09/05 18:18:30;;;;;;;;;;;26.50;95.60;;;;;;8389456;28;19920;-73
2022/09/05 18:23:10;;;;;;;;;;;26.40;95.60;;;;;;8388766;28;20384;-73
2022/09/05 18:27:40;;;;;;;;;;;26.40;95.60;;;;;;8389930;28;20672;-73
2022/09/05 18:32:03;;;;;;;;;;;26.40;95.50;;;;;;8388778;28;20359;-73
2022/09/05 18:36:17;;;;;;;;;;;26.40;95.40;;;;;;8390040;28;19939;-74
2022/09/05 18:40:34;;;;;;;;;;;26.30;95.20;;;;;;8385642;28;19935;-74
2022/09/05 18:44:43;;;;;;;;;;;26.30;95.20;;;;;;8382453;28;20740;-73
2022/09/05 18:48:59;;;;;;;;;;;26.30;95.40;;;;;;8382630;28;20287;-73
2022/09/05 18:53:25;;;;;;;;;;;26.20;95.50;;;;;;8383242;28;20423;-73
2022/09/05 18:57:29;;;;;;;;;;;26.10;95.60;;;;;;8380918;28;19936;-74
2022/09/05 19:01:40;;;;;;;;;;;26.00;95.70;;;;;;8399530;28;20473;-74
2022/09/05 19:05:51;;;;;;;;;;;25.90;95.70;;;;;;8385632;28;19951;-74
2022/09/05 19:10:00;;;;;;;;;;;25.80;95.90;;;;;;8382734;28;19955;-75
2022/09/05 19:14:13;;;;;;;;;;;25.60;95.90;;;;;;8386911;28;20018;-74
2022/09/05 19:18:27;;;;;;;;;;;25.40;96.10;;;;;;8383954;28;19982;-74
2022/09/05 19:22:31;;;;;;;;;;;25.20;95.60;;;;;;8389894;28;20027;-74
2022/09/05 19:26:54;;;;;;;;;;;25.20;95.50;;;;;;8382547;28;19999;-73
2022/09/05 19:31:11;;;;;;;;;;;25.20;95.40;;;;;;8389609;28;19955;-74
2022/09/05 19:35:34;;;;;;;;;;;25.30;95.30;;;;;;8400645;28;19966;-75
2022/09/05 19:39:57;;;;;;;;;;;25.30;95.30;;;;;;8399447;28;20023;-74
2022/09/05 19:44:23;;;;;;;;;;;25.20;95.20;;;;;;8401288;28;19974;-74
2022/09/05 19:48:51;;;;;;;;;;;25.20;95.00;;;;;;8385911;28;20439;-74
2022/09/05 19:53:06;;;;;;;;;;;25.10;94.80;;;;;;8382599;28;19924;-74
2022/09/05 19:57:16;;;;;;;;;;;25.10;94.80;;;;;;8382685;28;19928;-73
2022/09/05 20:01:19;;;;;;;;;;;25.00;94.70;;;;;;8387780;28;19935;-73
2022/09/05 20:05:21;;;;;;;;;;;25.00;94.60;;;;;;8370115;28;19921;-73
2022/09/05 20:09:24;;;;;;;;;;;25.00;94.70;;;;;;8365596;28;19920;-73
2022/09/05 20:13:26;;;;;;;;;;;25.00;94.70;;;;;;8390797;28;19927;-74
2022/09/05 20:17:28;;;;;;;;;;;25.00;94.60;;;;;;8383214;28;19924;-74
2022/09/05 20:21:32;;;;;;;;;;;25.00;94.50;;;;;;8386578;28;19927;-73
2022/09/05 20:25:34;;;;;;;;;;;25.00;94.50;;;;;;8386089;28;19935;-73
2022/09/05 20:29:44;;;;;;;;;;;25.00;94.50;;;;;;8386884;28;19989;-74
2022/09/05 20:33:57;;;;;;;;;;;24.90;94.60;;;;;;8388399;28;19947;-74
2022/09/05 20:38:01;;;;;;;;;;;24.80;94.70;;;;;;8389293;28;19920;-74
2022/09/05 20:42:28;;;;;;;;;;;24.80;94.90;;;;;;8384506;28;20003;-73
2022/09/05 20:47:09;;;;;;;;;;;24.70;95.10;;;;;;8388127;28;19948;-74
2022/09/05 20:51:31;;;;;;;;;;;24.60;95.50;;;;;;8386391;28;20442;-73
2022/09/05 20:56:03;;;;;;;;;;;24.50;95.70;;;;;;8389955;28;20948;-74
2022/09/05 21:00:11;;;;;;;;;;;24.50;96.30;;;;;;8396047;28;20363;-74
2022/09/05 21:04:25;;;;;;;;;;;24.40;96.50;;;;;;8414983;28;20014;-73
2022/09/05 21:08:31;;;;;;;;;;;24.30;96.70;;;;;;8410059;28;19928;-73
2022/09/05 21:12:38;;;;;;;;;;;24.20;97.10;;;;;;8427823;28;20294;-73
2022/09/05 21:16:43;;;;;;;;;;;24.00;97.60;;;;;;8421098;28;19923;-73
2022/09/05 21:20:55;;;;;;;;;;;23.80;97.90;;;;;;8413690;28;19965;-73
2022/09/05 21:25:08;;;;;;;;;;;23.70;98.20;;;;;;8412073;28;19928;-74
2022/09/05 21:29:09;;;;;;;;;;;23.50;98.50;;;;;;8416521;28;19920;-73
2022/09/05 21:33:14;;;;;;;;;;;23.40;98.90;;;;;;8396649;28;20378;-74
2022/09/05 21:37:19;;;;;;;;;;;23.20;98.90;;;;;;8402500;28;19946;-74
2022/09/05 21:41:20;;;;;;;;;;;23.20;98.40;;;;;;8411781;28;19927;-73
2022/09/05 21:45:22;;;;;;;;;;;23.20;98.50;;;;;;8411321;28;19920;-73
2022/09/05 21:49:44;;;;;;;;;;;23.20;98.60;;;;;;8402239;28;19920;-74
2022/09/05 21:53:48;;;;;;;;;;;23.20;98.60;;;;;;8419572;28;22645;-74
2022/09/05 21:58:09;;;;;;;;;;;23.20;98.80;;;;;;8414306;28;20019;-74
2022/09/05 22:02:31;;;;;;;;;;;23.20;98.90;;;;;;8413908;28;20379;-74
2022/09/05 22:06:33;;;;;;;;;;;23.20;99.20;;;;;;8412124;28;19927;-74
2022/09/05 22:10:34;;;;;;;;;;;23.10;99.00;;;;;;8409939;28;19925;-72
2022/09/05 22:14:48;;;;;;;;;;;23.10;99.10;;;;;;8408559;28;20402;-73
2022/09/05 22:18:49;;;;;;;;;;;23.10;99.10;;;;;;8391459;28;19921;-73
2022/09/05 22:22:51;;;;;;;;;;;23.20;99.10;;;;;;8410845;28;20302;-74
2022/09/05 22:26:58;;;;;;;;;;;23.20;99.20;;;;;;8410049;28;20183;-73
2022/09/05 22:31:14;;;;;;;;;;;23.10;99.20;;;;;;8404597;28;20539;-74
2022/09/05 22:35:16;;;;;;;;;;;23.10;99.30;;;;;;8412175;28;19921;-74
2022/09/05 22:39:29;;;;;;;;;;;23.00;99.50;;;;;;8406660;28;19928;-73
2022/09/05 22:43:37;;;;;;;;;;;23.00;99.90;;;;;;8387074;28;19928;-73
2022/09/05 22:47:39;;;;;;;;;;;22.90;99.80;;;;;;8411400;28;19927;-73
2022/09/05 22:51:41;;;;;;;;;;;22.80;99.90;;;;;;8403565;28;19943;-73
2022/09/05 22:55:42;;;;;;;;;;;22.70;99.90;;;;;;8409967;28;19974;-74
2022/09/05 22:59:44;;;;;;;;;;;22.60;99.90;;;;;;8413088;28;19942;-74
2022/09/05 23:03:46;;;;;;;;;;;22.60;99.90;;;;;;8419808;28;19942;-73
2022/09/05 23:07:47;;;;;;;;;;;22.50;99.90;;;;;;8408952;28;20294;-73
2022/09/05 23:11:49;;;;;;;;;;;22.50;99.90;;;;;;8409056;28;20342;-74
2022/09/05 23:15:55;;;;;;;;;;;22.50;99.90;;;;;;8410718;28;19919;-73
2022/09/05 23:19:57;;;;;;;;;;;22.50;99.90;;;;;;8410919;28;19921;-73
2022/09/05 23:23:59;;;;;;;;;;;22.40;99.90;;;;;;8414594;28;19960;-73
2022/09/05 23:28:05;;;;;;;;;;;22.40;99.90;;;;;;8396836;28;19925;-74
2022/09/05 23:32:07;;;;;;;;;;;22.20;99.90;;;;;;8409373;28;19924;-73
2022/09/05 23:36:11;;;;;;;;;;;22.20;99.90;;;;;;8411562;28;19928;-73
2022/09/05 23:40:16;;;;;;;;;;;22.10;99.90;;;;;;8407167;28;19923;-73
2022/09/05 23:44:18;;;;;;;;;;;22.10;99.90;;;;;;8404050;28;19924;-74
2022/09/05 23:48:20;;;;;;;;;;;22.10;99.90;;;;;;8403770;28;19931;-74
2022/09/05 23:52:21;;;;;;;;;;;22.10;99.90;;;;;;8399248;28;19920;-74
2022/09/05 23:56:23;;;;;;;;;;;22.00;99.90;;;;;;8414029;28;19919;-73
